sensor_id;sensor_type;location;lat;lon;timestamp;P1;durP1;ratioP1;P2;durP2;ratioP2
64868;SDS011;51349;52.424;10.840;2024-01-30T00:03:45;7.20;;;6.50;;
64868;SDS011;51349;52.424;10.840;2024-01-30T00:08:46;11.60;;;7.40;;
64868;SDS011;51349;52.424;10.840;2024-01-30T00:13:48;11.10;;;7.73;;
64868;SDS011;51349;52.424;10.840;2024-01-30T00:18:52;10.57;;;7.93;;
64868;SDS011;51349;52.424;10.840;2024-01-30T00:23:53;11.33;;;8.47;;
64868;SDS011;51349;52.424;10.840;2024-01-30T00:28:54;12.97;;;8.27;;
64868;SDS011;51349;52.424;10.840;2024-01-30T00:33:54;11.93;;;7.63;;
64868;SDS011;51349;52.424;10.840;2024-01-30T00:38:55;10.43;;;7.37;;
64868;SDS011;51349;52.424;10.840;2024-01-30T00:43:56;9.77;;;7.37;;
64868;SDS011;51349;52.424;10.840;2024-01-30T00:48:57;7.93;;;6.13;;
64868;SDS011;51349;52.424;10.840;2024-01-30T00:53:57;7.10;;;6.20;;
64868;SDS011;51349;52.424;10.840;2024-01-30T00:58:58;7.40;;;6.57;;
64868;SDS011;51349;52.424;10.840;2024-01-30T01:03:59;7.13;;;6.07;;
64868;SDS011;51349;52.424;10.840;2024-01-30T01:09:00;6.83;;;6.07;;
64868;SDS011;51349;52.424;10.840;2024-01-30T01:14:00;7.80;;;6.10;;
64868;SDS011;51349;52.424;10.840;2024-01-30T01:19:01;8.30;;;5.83;;
64868;SDS011;51349;52.424;10.840;2024-01-30T01:24:01;7.20;;;6.23;;
64868;SDS011;51349;52.424;10.840;2024-01-30T01:29:02;7.20;;;6.23;;
64868;SDS011;51349;52.424;10.840;2024-01-30T01:34:10;8.27;;;6.20;;
64868;SDS011;51349;52.424;10.840;2024-01-30T01:39:11;7.67;;;5.87;;
64868;SDS011;51349;52.424;10.840;2024-01-30T01:44:11;7.27;;;5.90;;
64868;SDS011;51349;52.424;10.840;2024-01-30T01:49:12;7.60;;;5.93;;
64868;SDS011;51349;52.424;10.840;2024-01-30T01:54:14;7.77;;;5.93;;
64868;SDS011;51349;52.424;10.840;2024-01-30T01:59:16;7.10;;;5.77;;
64868;SDS011;51349;52.424;10.840;2024-01-30T02:04:18;6.10;;;5.47;;
64868;SDS011;51349;52.424;10.840;2024-01-30T02:09:18;7.03;;;5.63;;
64868;SDS011;51349;52.424;10.840;2024-01-30T02:14:19;8.40;;;5.90;;
64868;SDS011;51349;52.424;10.840;2024-01-30T02:19:20;7.50;;;5.00;;
64868;SDS011;51349;52.424;10.840;2024-01-30T02:24:20;6.83;;;5.47;;
64868;SDS011;51349;52.424;10.840;2024-01-30T02:29:21;7.87;;;5.63;;
64868;SDS011;51349;52.424;10.840;2024-01-30T02:34:22;7.13;;;5.30;;
64868;SDS011;51349;52.424;10.840;2024-01-30T02:39:23;6.80;;;5.33;;
64868;SDS011;51349;52.424;10.840;2024-01-30T02:44:24;6.33;;;5.43;;
64868;SDS011;51349;52.424;10.840;2024-01-30T02:49:25;9.13;;;5.97;;
64868;SDS011;51349;52.424;10.840;2024-01-30T02:54:25;8.03;;;5.97;;
64868;SDS011;51349;52.424;10.840;2024-01-30T02:59:26;7.33;;;5.80;;
64868;SDS011;51349;52.424;10.840;2024-01-30T03:04:26;8.37;;;5.80;;
64868;SDS011;51349;52.424;10.840;2024-01-30T03:09:27;5.83;;;5.23;;
64868;SDS011;51349;52.424;10.840;2024-01-30T03:14:30;6.13;;;5.13;;
64868;SDS011;51349;52.424;10.840;2024-01-30T03:19:31;7.10;;;5.90;;
64868;SDS011;51349;52.424;10.840;2024-01-30T03:24:32;7.67;;;6.10;;
64868;SDS011;51349;52.424;10.840;2024-01-30T03:29:33;6.80;;;6.00;;
64868;SDS011;51349;52.424;10.840;2024-01-30T03:34:33;7.13;;;5.60;;
64868;SDS011;51349;52.424;10.840;2024-01-30T03:39:34;5.87;;;5.27;;
64868;SDS011;51349;52.424;10.840;2024-01-30T03:44:36;6.90;;;5.93;;
64868;SDS011;51349;52.424;10.840;2024-01-30T03:49:37;5.80;;;5.20;;
64868;SDS011;51349;52.424;10.840;2024-01-30T03:54:37;7.83;;;5.63;;
64868;SDS011;51349;52.424;10.840;2024-01-30T03:59:41;7.60;;;5.70;;
64868;SDS011;51349;52.424;10.840;2024-01-30T04:04:42;6.53;;;5.57;;
64868;SDS011;51349;52.424;10.840;2024-01-30T04:09:43;6.07;;;5.47;;
64868;SDS011;51349;52.424;10.840;2024-01-30T04:14:43;8.53;;;5.53;;
64868;SDS011;51349;52.424;10.840;2024-01-30T04:19:44;8.10;;;6.23;;
64868;SDS011;51349;52.424;10.840;2024-01-30T04:24:45;7.23;;;5.87;;
64868;SDS011;51349;52.424;10.840;2024-01-30T04:29:45;8.57;;;6.00;;
64868;SDS011;51349;52.424;10.840;2024-01-30T04:34:46;6.40;;;5.53;;
64868;SDS011;51349;52.424;10.840;2024-01-30T04:39:47;7.10;;;5.90;;
64868;SDS011;51349;52.424;10.840;2024-01-30T04:44:47;7.33;;;6.03;;
64868;SDS011;51349;52.424;10.840;2024-01-30T04:49:48;8.17;;;6.40;;
64868;SDS011;51349;52.424;10.840;2024-01-30T04:54:49;9.00;;;6.13;;
64868;SDS011;51349;52.424;10.840;2024-01-30T04:59:49;7.93;;;6.47;;
64868;SDS011;51349;52.424;10.840;2024-01-30T05:04:50;6.77;;;5.80;;
64868;SDS011;51349;52.424;10.840;2024-01-30T05:09:51;9.47;;;6.40;;
64868;SDS011;51349;52.424;10.840;2024-01-30T05:14:51;8.10;;;6.70;;
64868;SDS011;51349;52.424;10.840;2024-01-30T05:19:52;7.63;;;5.83;;
64868;SDS011;51349;52.424;10.840;2024-01-30T05:24:53;8.80;;;6.30;;
64868;SDS011;51349;52.424;10.840;2024-01-30T05:29:53;8.50;;;6.20;;
64868;SDS011;51349;52.424;10.840;2024-01-30T05:34:54;7.03;;;6.17;;
64868;SDS011;51349;52.424;10.840;2024-01-30T05:39:55;6.87;;;5.77;;
64868;SDS011;51349;52.424;10.840;2024-01-30T05:44:56;7.73;;;6.37;;
64868;SDS011;51349;52.424;10.840;2024-01-30T05:49:57;7.80;;;6.43;;
64868;SDS011;51349;52.424;10.840;2024-01-30T05:54:58;7.37;;;6.07;;
64868;SDS011;51349;52.424;10.840;2024-01-30T05:59:58;7.77;;;5.83;;
64868;SDS011;51349;52.424;10.840;2024-01-30T06:04:59;8.00;;;6.73;;
64868;SDS011;51349;52.424;10.840;2024-01-30T06:10:00;9.33;;;6.73;;
64868;SDS011;51349;52.424;10.840;2024-01-30T06:15:01;9.10;;;6.80;;
64868;SDS011;51349;52.424;10.840;2024-01-30T06:20:02;8.20;;;7.30;;
64868;SDS011;51349;52.424;10.840;2024-01-30T06:25:04;9.00;;;7.00;;
64868;SDS011;51349;52.424;10.840;2024-01-30T06:30:05;6.93;;;6.20;;
64868;SDS011;51349;52.424;10.840;2024-01-30T06:35:09;9.33;;;6.63;;
64868;SDS011;51349;52.424;10.840;2024-01-30T06:40:10;7.00;;;5.97;;
64868;SDS011;51349;52.424;10.840;2024-01-30T06:45:11;12.30;;;8.33;;
64868;SDS011;51349;52.424;10.840;2024-01-30T06:50:12;7.70;;;6.53;;
64868;SDS011;51349;52.424;10.840;2024-01-30T06:55:13;14.40;;;9.20;;
64868;SDS011;51349;52.424;10.840;2024-01-30T07:00:14;15.67;;;8.53;;
64868;SDS011;51349;52.424;10.840;2024-01-30T07:05:16;27.07;;;14.73;;
64868;SDS011;51349;52.424;10.840;2024-01-30T07:10:17;15.90;;;9.67;;
64868;SDS011;51349;52.424;10.840;2024-01-30T07:15:18;12.00;;;8.10;;
64868;SDS011;51349;52.424;10.840;2024-01-30T07:20:20;8.90;;;7.33;;
64868;SDS011;51349;52.424;10.840;2024-01-30T07:25:21;7.67;;;6.83;;
64868;SDS011;51349;52.424;10.840;2024-01-30T07:30:26;9.70;;;6.90;;
64868;SDS011;51349;52.424;10.840;2024-01-30T07:35:27;7.47;;;6.77;;
64868;SDS011;51349;52.424;10.840;2024-01-30T07:40:28;9.27;;;7.33;;
64868;SDS011;51349;52.424;10.840;2024-01-30T07:45:28;10.73;;;7.07;;
64868;SDS011;51349;52.424;10.840;2024-01-30T07:50:33;13.13;;;7.70;;
64868;SDS011;51349;52.424;10.840;2024-01-30T07:55:33;9.40;;;7.30;;
64868;SDS011;51349;52.424;10.840;2024-01-30T08:00:34;11.07;;;7.27;;
64868;SDS011;51349;52.424;10.840;2024-01-30T08:05:35;12.53;;;7.30;;
64868;SDS011;51349;52.424;10.840;2024-01-30T08:10:36;9.97;;;7.40;;
64868;SDS011;51349;52.424;10.840;2024-01-30T08:15:37;7.93;;;7.00;;
64868;SDS011;51349;52.424;10.840;2024-01-30T08:20:38;8.90;;;7.33;;
64868;SDS011;51349;52.424;10.840;2024-01-30T08:25:38;8.20;;;7.00;;
64868;SDS011;51349;52.424;10.840;2024-01-30T08:30:39;10.40;;;8.30;;
64868;SDS011;51349;52.424;10.840;2024-01-30T08:35:40;10.67;;;7.47;;
64868;SDS011;51349;52.424;10.840;2024-01-30T08:40:40;10.37;;;7.87;;
64868;SDS011;51349;52.424;10.840;2024-01-30T08:45:41;10.83;;;8.63;;
64868;SDS011;51349;52.424;10.840;2024-01-30T08:50:42;18.90;;;8.50;;
64868;SDS011;51349;52.424;10.840;2024-01-30T08:55:43;39.77;;;11.13;;
64868;SDS011;51349;52.424;10.840;2024-01-30T09:00:44;22.00;;;9.90;;
64868;SDS011;51349;52.424;10.840;2024-01-30T09:05:45;17.23;;;9.27;;
64868;SDS011;51349;52.424;10.840;2024-01-30T09:10:46;12.83;;;9.27;;
64868;SDS011;51349;52.424;10.840;2024-01-30T09:15:46;15.30;;;9.97;;
64868;SDS011;51349;52.424;10.840;2024-01-30T09:20:47;16.17;;;9.90;;
64868;SDS011;51349;52.424;10.840;2024-01-30T09:25:48;15.73;;;11.03;;
64868;SDS011;51349;52.424;10.840;2024-01-30T09:30:49;14.40;;;9.63;;
64868;SDS011;51349;52.424;10.840;2024-01-30T09:35:50;17.83;;;10.63;;
64868;SDS011;51349;52.424;10.840;2024-01-30T09:40:54;14.23;;;10.27;;
64868;SDS011;51349;52.424;10.840;2024-01-30T09:45:58;15.70;;;10.30;;
64868;SDS011;51349;52.424;10.840;2024-01-30T09:51:02;17.63;;;10.97;;
64868;SDS011;51349;52.424;10.840;2024-01-30T09:56:09;14.30;;;10.50;;
64868;SDS011;51349;52.424;10.840;2024-01-30T10:01:13;19.23;;;10.83;;
64868;SDS011;51349;52.424;10.840;2024-01-30T10:06:19;17.23;;;10.80;;
64868;SDS011;51349;52.424;10.840;2024-01-30T10:11:21;15.23;;;10.93;;
64868;SDS011;51349;52.424;10.840;2024-01-30T10:16:22;16.43;;;10.43;;
64868;SDS011;51349;52.424;10.840;2024-01-30T10:21:23;12.57;;;10.63;;
64868;SDS011;51349;52.424;10.840;2024-01-30T10:26:23;13.23;;;9.10;;
64868;SDS011;51349;52.424;10.840;2024-01-30T10:31:24;13.50;;;9.50;;
64868;SDS011;51349;52.424;10.840;2024-01-30T10:36:26;10.23;;;8.13;;
64868;SDS011;51349;52.424;10.840;2024-01-30T10:41:30;10.70;;;8.20;;
64868;SDS011;51349;52.424;10.840;2024-01-30T10:46:33;8.97;;;7.20;;
64868;SDS011;51349;52.424;10.840;2024-01-30T10:51:38;9.67;;;7.20;;
64868;SDS011;51349;52.424;10.840;2024-01-30T10:56:39;7.37;;;6.67;;
64868;SDS011;51349;52.424;10.840;2024-01-30T11:01:40;7.90;;;6.30;;
64868;SDS011;51349;52.424;10.840;2024-01-30T11:06:42;7.77;;;6.40;;
64868;SDS011;51349;52.424;10.840;2024-01-30T11:11:50;7.20;;;6.50;;
64868;SDS011;51349;52.424;10.840;2024-01-30T11:16:52;9.47;;;6.50;;
64868;SDS011;51349;52.424;10.840;2024-01-30T11:21:53;9.60;;;6.30;;
64868;SDS011;51349;52.424;10.840;2024-01-30T11:26:56;7.20;;;6.50;;
64868;SDS011;51349;52.424;10.840;2024-01-30T11:31:58;6.87;;;6.07;;
64868;SDS011;51349;52.424;10.840;2024-01-30T11:36:59;7.70;;;6.57;;
64868;SDS011;51349;52.424;10.840;2024-01-30T11:42:04;8.00;;;6.07;;
64868;SDS011;51349;52.424;10.840;2024-01-30T11:47:09;7.63;;;6.40;;
64868;SDS011;51349;52.424;10.840;2024-01-30T11:52:10;14.63;;;10.77;;
64868;SDS011;51349;52.424;10.840;2024-01-30T11:57:11;17.87;;;16.03;;
64868;SDS011;51349;52.424;10.840;2024-01-30T12:02:15;7.13;;;5.70;;
64868;SDS011;51349;52.424;10.840;2024-01-30T12:07:17;10.90;;;9.80;;
64868;SDS011;51349;52.424;10.840;2024-01-30T12:12:18;16.80;;;13.83;;
64868;SDS011;51349;52.424;10.840;2024-01-30T12:17:31;6.97;;;5.73;;
64868;SDS011;51349;52.424;10.840;2024-01-30T12:22:41;6.40;;;5.60;;
64868;SDS011;51349;52.424;10.840;2024-01-30T12:27:49;6.20;;;5.60;;
64868;SDS011;51349;52.424;10.840;2024-01-30T12:32:51;6.78;;;5.78;;
64868;SDS011;51349;52.424;10.840;2024-01-30T12:37:51;7.65;;;6.28;;
64868;SDS011;51349;52.424;10.840;2024-01-30T12:42:52;7.55;;;6.10;;
64868;SDS011;51349;52.424;10.840;2024-01-30T12:47:53;6.97;;;6.32;;
64868;SDS011;51349;52.424;10.840;2024-01-30T12:52:54;7.32;;;6.13;;
64868;SDS011;51349;52.424;10.840;2024-01-30T12:57:55;8.63;;;6.68;;
64868;SDS011;51349;52.424;10.840;2024-01-30T13:02:56;9.65;;;6.53;;
64868;SDS011;51349;52.424;10.840;2024-01-30T13:07:57;7.55;;;6.25;;
64868;SDS011;51349;52.424;10.840;2024-01-30T13:12:57;9.32;;;6.80;;
64868;SDS011;51349;52.424;10.840;2024-01-30T13:17:58;7.68;;;6.47;;
64868;SDS011;51349;52.424;10.840;2024-01-30T13:22:59;6.45;;;5.85;;
64868;SDS011;51349;52.424;10.840;2024-01-30T13:28:00;7.00;;;6.15;;
64868;SDS011;51349;52.424;10.840;2024-01-30T13:33:01;7.22;;;6.35;;
64868;SDS011;51349;52.424;10.840;2024-01-30T13:38:03;8.57;;;5.57;;
64868;SDS011;51349;52.424;10.840;2024-01-30T13:43:04;6.82;;;5.65;;
64868;SDS011;51349;52.424;10.840;2024-01-30T13:48:05;6.10;;;5.50;;
64868;SDS011;51349;52.424;10.840;2024-01-30T13:53:06;6.07;;;5.47;;
64868;SDS011;51349;52.424;10.840;2024-01-30T13:58:07;7.15;;;5.78;;
64868;SDS011;51349;52.424;10.840;2024-01-30T14:03:08;5.75;;;5.22;;
64868;SDS011;51349;52.424;10.840;2024-01-30T14:08:08;8.10;;;5.90;;
64868;SDS011;51349;52.424;10.840;2024-01-30T14:13:12;6.43;;;5.15;;
64868;SDS011;51349;52.424;10.840;2024-01-30T14:18:13;6.90;;;5.63;;
64868;SDS011;51349;52.424;10.840;2024-01-30T14:23:14;6.45;;;5.72;;
64868;SDS011;51349;52.424;10.840;2024-01-30T14:28:18;6.28;;;5.63;;
64868;SDS011;51349;52.424;10.840;2024-01-30T14:33:19;5.50;;;5.00;;
64868;SDS011;51349;52.424;10.840;2024-01-30T14:38:20;10.97;;;8.00;;
64868;SDS011;51349;52.424;10.840;2024-01-30T14:43:21;6.93;;;6.18;;
64868;SDS011;51349;52.424;10.840;2024-01-30T14:48:21;8.00;;;7.03;;
64868;SDS011;51349;52.424;10.840;2024-01-30T14:53:25;6.93;;;6.23;;
64868;SDS011;51349;52.424;10.840;2024-01-30T14:58:25;6.70;;;5.77;;
64868;SDS011;51349;52.424;10.840;2024-01-30T15:03:27;7.20;;;5.77;;
64868;SDS011;51349;52.424;10.840;2024-01-30T15:08:30;7.03;;;5.60;;
64868;SDS011;51349;52.424;10.840;2024-01-30T15:13:31;7.70;;;6.20;;
64868;SDS011;51349;52.424;10.840;2024-01-30T15:18:32;7.13;;;5.63;;
64868;SDS011;51349;52.424;10.840;2024-01-30T15:23:33;7.90;;;5.73;;
64868;SDS011;51349;52.424;10.840;2024-01-30T15:28:37;6.83;;;5.97;;
64868;SDS011;51349;52.424;10.840;2024-01-30T15:33:38;6.55;;;5.80;;
64868;SDS011;51349;52.424;10.840;2024-01-30T15:38:39;6.93;;;5.90;;
64868;SDS011;51349;52.424;10.840;2024-01-30T15:43:40;7.13;;;6.20;;
64868;SDS011;51349;52.424;10.840;2024-01-30T15:48:40;7.57;;;5.97;;
64868;SDS011;51349;52.424;10.840;2024-01-30T15:53:41;8.70;;;6.10;;
64868;SDS011;51349;52.424;10.840;2024-01-30T15:58:42;6.53;;;5.90;;
64868;SDS011;51349;52.424;10.840;2024-01-30T16:03:49;6.97;;;6.37;;
64868;SDS011;51349;52.424;10.840;2024-01-30T16:08:50;7.27;;;5.53;;
64868;SDS011;51349;52.424;10.840;2024-01-30T16:13:51;7.23;;;6.60;;
64868;SDS011;51349;52.424;10.840;2024-01-30T16:18:52;7.27;;;6.30;;
64868;SDS011;51349;52.424;10.840;2024-01-30T16:23:53;7.13;;;6.50;;
64868;SDS011;51349;52.424;10.840;2024-01-30T16:28:54;7.27;;;6.57;;
64868;SDS011;51349;52.424;10.840;2024-01-30T16:33:54;7.47;;;6.30;;
64868;SDS011;51349;52.424;10.840;2024-01-30T16:38:57;6.70;;;6.10;;
64868;SDS011;51349;52.424;10.840;2024-01-30T16:43:58;8.00;;;6.60;;
64868;SDS011;51349;52.424;10.840;2024-01-30T16:48:59;7.43;;;6.73;;
64868;SDS011;51349;52.424;10.840;2024-01-30T16:54:00;6.93;;;6.33;;
64868;SDS011;51349;52.424;10.840;2024-01-30T16:59:00;8.53;;;7.00;;
64868;SDS011;51349;52.424;10.840;2024-01-30T17:04:01;17.43;;;11.37;;
64868;SDS011;51349;52.424;10.840;2024-01-30T17:09:02;9.33;;;7.37;;
64868;SDS011;51349;52.424;10.840;2024-01-30T17:14:03;8.93;;;7.27;;
64868;SDS011;51349;52.424;10.840;2024-01-30T17:19:03;13.97;;;7.67;;
64868;SDS011;51349;52.424;10.840;2024-01-30T17:24:04;9.30;;;8.03;;
64868;SDS011;51349;52.424;10.840;2024-01-30T17:29:07;9.47;;;7.70;;
64868;SDS011;51349;52.424;10.840;2024-01-30T17:34:07;10.40;;;7.13;;
64868;SDS011;51349;52.424;10.840;2024-01-30T17:39:08;7.87;;;6.63;;
64868;SDS011;51349;52.424;10.840;2024-01-30T17:44:09;9.07;;;8.00;;
64868;SDS011;51349;52.424;10.840;2024-01-30T17:49:11;12.17;;;7.90;;
64868;SDS011;51349;52.424;10.840;2024-01-30T17:54:12;8.40;;;7.60;;
64868;SDS011;51349;52.424;10.840;2024-01-30T17:59:13;10.20;;;7.13;;
64868;SDS011;51349;52.424;10.840;2024-01-30T18:04:14;7.80;;;6.97;;
64868;SDS011;51349;52.424;10.840;2024-01-30T18:09:17;10.00;;;7.00;;
64868;SDS011;51349;52.424;10.840;2024-01-30T18:14:19;9.07;;;6.93;;
64868;SDS011;51349;52.424;10.840;2024-01-30T18:19:19;8.47;;;7.63;;
64868;SDS011;51349;52.424;10.840;2024-01-30T18:24:21;9.27;;;6.90;;
64868;SDS011;51349;52.424;10.840;2024-01-30T18:29:21;9.20;;;7.27;;
64868;SDS011;51349;52.424;10.840;2024-01-30T18:34:22;9.17;;;8.10;;
64868;SDS011;51349;52.424;10.840;2024-01-30T18:39:23;10.80;;;8.20;;
64868;SDS011;51349;52.424;10.840;2024-01-30T18:44:24;9.93;;;7.27;;
64868;SDS011;51349;52.424;10.840;2024-01-30T18:49:24;8.97;;;8.10;;
64868;SDS011;51349;52.424;10.840;2024-01-30T18:54:25;8.30;;;7.50;;
64868;SDS011;51349;52.424;10.840;2024-01-30T18:59:26;9.20;;;7.57;;
64868;SDS011;51349;52.424;10.840;2024-01-30T19:04:27;10.47;;;7.70;;
64868;SDS011;51349;52.424;10.840;2024-01-30T19:09:27;12.20;;;7.70;;
64868;SDS011;51349;52.424;10.840;2024-01-30T19:14:28;9.63;;;6.80;;
64868;SDS011;51349;52.424;10.840;2024-01-30T19:19:31;9.17;;;7.73;;
64868;SDS011;51349;52.424;10.840;2024-01-30T19:24:31;9.33;;;7.40;;
64868;SDS011;51349;52.424;10.840;2024-01-30T19:29:32;9.87;;;7.80;;
64868;SDS011;51349;52.424;10.840;2024-01-30T19:34:33;9.63;;;7.90;;
64868;SDS011;51349;52.424;10.840;2024-01-30T19:39:33;10.63;;;8.03;;
64868;SDS011;51349;52.424;10.840;2024-01-30T19:44:34;10.83;;;7.27;;
64868;SDS011;51349;52.424;10.840;2024-01-30T19:49:38;9.80;;;7.80;;
64868;SDS011;51349;52.424;10.840;2024-01-30T19:54:40;11.57;;;8.40;;
64868;SDS011;51349;52.424;10.840;2024-01-30T19:59:44;8.90;;;7.87;;
64868;SDS011;51349;52.424;10.840;2024-01-30T20:04:44;9.30;;;8.40;;
64868;SDS011;51349;52.424;10.840;2024-01-30T20:09:45;11.10;;;8.17;;
64868;SDS011;51349;52.424;10.840;2024-01-30T20:14:47;10.10;;;7.80;;
64868;SDS011;51349;52.424;10.840;2024-01-30T20:19:49;10.93;;;7.60;;
64868;SDS011;51349;52.424;10.840;2024-01-30T20:24:53;10.40;;;9.10;;
64868;SDS011;51349;52.424;10.840;2024-01-30T20:29:54;9.87;;;8.10;;
64868;SDS011;51349;52.424;10.840;2024-01-30T20:34:55;10.97;;;7.67;;
64868;SDS011;51349;52.424;10.840;2024-01-30T20:39:57;10.33;;;7.67;;
64868;SDS011;51349;52.424;10.840;2024-01-30T20:44:59;6.63;;;6.00;;
64868;SDS011;51349;52.424;10.840;2024-01-30T20:50:03;6.00;;;5.40;;
64868;SDS011;51349;52.424;10.840;2024-01-30T20:55:04;5.43;;;4.90;;
64868;SDS011;51349;52.424;10.840;2024-01-30T21:00:05;4.90;;;4.40;;
64868;SDS011;51349;52.424;10.840;2024-01-30T21:05:06;4.30;;;3.90;;
64868;SDS011;51349;52.424;10.840;2024-01-30T21:10:07;3.97;;;3.20;;
64868;SDS011;51349;52.424;10.840;2024-01-30T21:15:09;3.80;;;3.40;;
64868;SDS011;51349;52.424;10.840;2024-01-30T21:20:10;3.80;;;3.40;;
64868;SDS011;51349;52.424;10.840;2024-01-30T21:25:12;3.50;;;3.20;;
64868;SDS011;51349;52.424;10.840;2024-01-30T21:30:13;3.10;;;2.80;;
64868;SDS011;51349;52.424;10.840;2024-01-30T21:35:14;3.10;;;2.80;;
64868;SDS011;51349;52.424;10.840;2024-01-30T21:40:15;2.93;;;2.73;;
64868;SDS011;51349;52.424;10.840;2024-01-30T21:45:17;3.37;;;3.07;;
64868;SDS011;51349;52.424;10.840;2024-01-30T21:50:20;3.30;;;2.70;;
64868;SDS011;51349;52.424;10.840;2024-01-30T21:55:21;2.83;;;2.40;;
64868;SDS011;51349;52.424;10.840;2024-01-30T22:00:21;2.93;;;2.57;;
64868;SDS011;51349;52.424;10.840;2024-01-30T22:05:22;3.37;;;2.63;;
64868;SDS011;51349;52.424;10.840;2024-01-30T22:10:23;2.90;;;2.70;;
64868;SDS011;51349;52.424;10.840;2024-01-30T22:15:23;3.23;;;2.93;;
64868;SDS011;51349;52.424;10.840;2024-01-30T22:20:24;2.90;;;2.70;;
64868;SDS011;51349;52.424;10.840;2024-01-30T22:25:25;2.73;;;2.53;;
64868;SDS011;51349;52.424;10.840;2024-01-30T22:30:25;2.80;;;2.60;;
64868;SDS011;51349;52.424;10.840;2024-01-30T22:35:26;3.43;;;3.00;;
64868;SDS011;51349;52.424;10.840;2024-01-30T22:40:27;3.43;;;3.13;;
64868;SDS011;51349;52.424;10.840;2024-01-30T22:45:28;3.10;;;2.80;;
64868;SDS011;51349;52.424;10.840;2024-01-30T22:50:28;3.73;;;3.30;;
64868;SDS011;51349;52.424;10.840;2024-01-30T22:55:29;5.30;;;3.70;;
64868;SDS011;51349;52.424;10.840;2024-01-30T23:00:30;4.23;;;3.83;;
64868;SDS011;51349;52.424;10.840;2024-01-30T23:05:31;3.57;;;3.27;;
64868;SDS011;51349;52.424;10.840;2024-01-30T23:10:33;4.20;;;3.80;;
64868;SDS011;51349;52.424;10.840;2024-01-30T23:15:34;5.03;;;3.60;;
64868;SDS011;51349;52.424;10.840;2024-01-30T23:20:35;3.70;;;3.30;;
64868;SDS011;51349;52.424;10.840;2024-01-30T23:25:36;4.53;;;4.00;;
64868;SDS011;51349;52.424;10.840;2024-01-30T23:30:37;4.13;;;3.43;;
64868;SDS011;51349;52.424;10.840;2024-01-30T23:35:38;4.40;;;4.00;;
64868;SDS011;51349;52.424;10.840;2024-01-30T23:40:38;4.53;;;4.10;;
64868;SDS011;51349;52.424;10.840;2024-01-30T23:45:42;4.37;;;3.97;;
64868;SDS011;51349;52.424;10.840;2024-01-30T23:50:43;4.20;;;3.87;;
64868;SDS011;51349;52.424;10.840;2024-01-30T23:55:44;5.13;;;4.63;;
